Time;durP1;ratioP1;P1;durP2;ratioP2;P2;SDS_P1;SDS_P2;PMS_P1;PMS_P2;Temp;Humidity;BMP_temperature;BMP_pressure;BME280_temperature;BME280_humidity;BME280_pressure;Samples;Min_cycle;Max_cycle;Signal;HPM_P1;HPM_P2
2022/10/09 00:01:18;;;;;;;11.13;3.80;;;13.60;71.00;;;16.31;53.34;102384.22;5134677;27;20187;-58
2022/10/09 00:03:48;;;;;;;7.10;3.30;;;13.60;71.70;;;16.24;53.50;102376.91;5134123;27;20214;-58
2022/10/09 00:06:19;;;;;;;6.50;3.13;;;13.60;71.20;;;16.23;53.60;102379.75;5128615;27;20624;-58
2022/10/09 00:08:47;;;;;;;6.10;3.27;;;13.60;71.40;;;16.23;53.46;102380.56;5093634;28;20329;-56
2022/10/09 00:11:19;;;;;;;6.50;2.90;;;13.50;71.10;;;16.16;53.31;102379.56;5093631;28;20230;-59
2022/10/09 00:13:49;;;;;;;7.00;3.03;;;13.50;71.00;;;16.05;53.84;102382.59;5093368;28;20261;-57
2022/10/09 00:16:18;;;;;;;5.60;2.73;;;13.50;71.00;;;15.91;54.38;102388.59;5093120;28;20196;-60
2022/10/09 00:18:47;;;;;;;5.47;3.17;;;13.40;71.10;;;15.85;54.49;102383.97;5093673;28;20267;-58
2022/10/09 00:21:20;;;;;;;8.10;3.30;;;13.40;71.70;;;15.86;54.62;102388.28;5103025;27;20192;-58
2022/10/09 00:23:49;;;;;;;7.93;3.23;;;13.30;72.10;;;15.89;54.78;102387.94;5133892;27;20264;-59
2022/10/09 00:26:18;;;;;;;4.03;2.53;;;13.30;72.10;;;15.92;54.08;102395.59;5132833;27;20187;-59
2022/10/09 00:28:46;;;;;;;6.60;2.87;;;13.20;72.10;;;15.91;53.86;102388.59;5133945;27;20667;-59
2022/10/09 00:31:14;;;;;;;6.13;2.40;;;13.20;71.90;;;15.89;54.09;102393.25;5133074;27;20187;-55
2022/10/09 00:33:42;;;;;;;6.33;2.53;;;13.20;71.80;;;15.83;53.80;102398.44;5127074;27;20265;-57
2022/10/09 00:36:12;;;;;;;8.63;2.80;;;13.10;72.50;;;15.78;54.04;102401.59;5113546;28;20196;-57
2022/10/09 00:38:40;;;;;;;7.73;2.93;;;13.10;72.00;;;15.74;54.15;102400.25;5113375;28;20566;-58
2022/10/09 00:41:09;;;;;;;5.03;2.43;;;13.00;72.40;;;15.71;54.15;102395.28;5113171;28;20192;-57
2022/10/09 00:43:43;;;;;;;6.57;2.90;;;13.00;72.50;;;15.68;54.13;102400.91;5113164;28;20208;-57
2022/10/09 00:46:24;;;;;;;6.40;2.90;;;12.90;72.50;;;15.67;54.38;102409.88;5113121;28;20560;-58
2022/10/09 00:49:04;;;;;;;7.70;2.73;;;12.90;72.70;;;15.64;53.84;102410.22;5092842;28;20199;-58
2022/10/09 00:51:33;;;;;;;7.40;2.77;;;12.90;72.60;;;15.56;54.24;102410.22;5097237;28;20671;-55
2022/10/09 00:54:06;;;;;;;9.67;3.00;;;12.80;72.40;;;15.51;54.21;102410.72;5113164;28;20203;-55
2022/10/09 00:56:34;;;;;;;7.57;2.60;;;12.80;72.70;;;15.47;54.24;102417.34;5100557;28;20253;-57
2022/10/09 00:59:04;;;;;;;6.77;2.87;;;12.70;72.70;;;15.42;54.38;102411.69;5094538;28;20284;-58
2022/10/09 01:01:31;;;;;;;6.70;2.73;;;12.70;73.00;;;15.39;54.58;102408.50;5092866;28;20245;-57
2022/10/09 01:03:59;;;;;;;8.17;3.10;;;12.60;73.00;;;15.35;54.70;102413.31;5092559;28;20216;-57
2022/10/09 01:06:44;;;;;;;8.57;3.13;;;12.60;73.10;;;15.29;54.72;102421.09;5093053;28;20250;-58
2022/10/09 01:09:18;;;;;;;7.97;2.83;;;12.50;73.40;;;15.25;54.57;102419.75;5094222;28;20499;-57
2022/10/09 01:11:56;;;;;;;7.57;3.10;;;12.50;73.90;;;15.20;54.90;102411.47;5094155;28;20258;-57
2022/10/09 01:14:30;;;;;;;4.97;2.90;;;12.40;74.80;;;15.18;54.88;102413.47;5094227;28;20710;-55
2022/10/09 01:17:11;;;;;;;8.30;2.83;;;12.40;74.10;;;15.14;55.23;102414.78;5094081;28;20185;-54
2022/10/09 01:20:14;;;;;;;6.13;2.83;;;12.40;74.10;;;15.10;55.43;102406.31;5094424;28;20351;-58
2022/10/09 01:23:11;;;;;;;6.20;2.70;;;12.30;74.50;;;15.08;55.44;102407.47;5106459;28;20216;-58
2022/10/09 01:25:57;;;;;;;8.07;2.87;;;12.30;74.60;;;15.07;55.50;102403.16;5114425;28;20235;-55
2022/10/09 01:28:28;;;;;;;8.60;3.37;;;12.30;74.50;;;15.08;55.50;102407.47;5113972;28;20176;-58
2022/10/09 01:31:00;;;;;;;4.93;2.77;;;12.30;75.50;;;15.09;55.80;102403.84;5112539;28;20183;-55
2022/10/09 01:33:30;;;;;;;8.03;3.33;;;12.30;75.00;;;15.11;55.63;102401.84;5113950;28;20208;-56
2022/10/09 01:35:59;;;;;;;7.33;3.37;;;12.30;74.90;;;15.14;55.95;102406.81;5113785;28;20184;-58
2022/10/09 01:38:29;;;;;;;5.67;3.23;;;12.30;75.10;;;15.18;56.06;102408.16;5114721;28;20192;-56
2022/10/09 01:40:57;;;;;;;7.27;3.30;;;12.30;75.50;;;15.17;56.43;102401.16;5114406;28;20192;-55
2022/10/09 01:43:26;;;;;;;8.70;3.13;;;12.40;75.60;;;15.16;56.37;102404.84;5117015;28;20223;-56
2022/10/09 01:46:19;;;;;;;10.50;3.83;;;12.50;75.50;;;15.16;56.10;102405.66;5117420;28;20261;-58
2022/10/09 01:48:58;;;;;;;4.47;2.93;;;12.50;75.20;;;15.24;56.22;102404.84;5097435;28;20235;-58
2022/10/09 01:51:39;;;;;;;7.27;3.17;;;12.50;75.00;;;15.30;56.17;102401.53;5096182;28;20189;-57
2022/10/09 01:54:13;;;;;;;6.23;3.03;;;12.50;75.00;;;15.35;55.90;102405.38;5096583;28;20269;-58
2022/10/09 01:56:46;;;;;;;7.03;3.00;;;12.60;74.90;;;15.38;56.06;102410.31;5097198;28;20173;-56
2022/10/09 01:59:18;;;;;;;6.63;3.07;;;12.60;74.40;;;15.40;55.51;102407.53;5097120;28;20306;-57
2022/10/09 02:01:49;;;;;;;6.93;2.80;;;12.60;74.20;;;15.40;55.18;102410.19;5097184;28;20193;-58
2022/10/09 02:04:18;;;;;;;5.60;3.00;;;12.70;74.20;;;15.41;55.59;102403.84;5095723;28;20266;-58
2022/10/09 02:06:46;;;;;;;7.03;3.30;;;12.70;74.80;;;15.46;55.58;102397.09;5097156;28;20245;-56
2022/10/09 02:09:17;;;;;;;5.30;3.07;;;12.70;74.70;;;15.53;55.57;102397.25;5096970;28;20333;-57
2022/10/09 02:11:51;;;;;;;5.17;2.60;;;12.70;74.30;;;15.55;55.21;102400.56;5096916;28;20193;-59
2022/10/09 02:14:20;;;;;;;5.43;2.87;;;12.70;74.10;;;15.56;55.29;102403.09;5097916;28;20609;-57
2022/10/09 02:16:58;;;;;;;5.17;3.20;;;12.80;74.10;;;15.55;54.91;102404.06;5097699;28;20192;-56
2022/10/09 02:19:36;;;;;;;8.00;2.73;;;12.80;73.80;;;15.54;54.88;102398.94;5097587;28;20198;-58
2022/10/09 02:22:11;;;;;;;8.33;3.00;;;12.80;73.60;;;15.49;55.03;102401.25;5119505;27;20597;-57
2022/10/09 02:24:41;;;;;;;7.70;3.27;;;12.70;73.70;;;15.49;55.33;102406.56;5136812;27;20206;-56
2022/10/09 02:27:11;;;;;;;5.03;2.87;;;12.70;74.10;;;15.49;55.41;102404.75;5137906;27;20236;-57
2022/10/09 02:29:42;;;;;;;9.90;3.30;;;12.70;74.20;;;15.48;55.15;102403.06;5136724;27;20195;-57
2022/10/09 02:32:11;;;;;;;6.97;3.13;;;12.70;73.90;;;15.46;55.35;102396.28;5135411;27;20211;-58
2022/10/09 02:34:39;;;;;;;6.80;3.33;;;12.80;73.80;;;15.46;55.03;102406.88;5121995;27;20526;-58
2022/10/09 02:37:07;;;;;;;9.50;3.63;;;12.70;73.50;;;15.43;55.03;102401.88;5115854;28;20187;-58
2022/10/09 02:39:35;;;;;;;6.97;3.33;;;12.70;73.30;;;15.37;55.24;102402.53;5115564;28;20192;-58
2022/10/09 02:42:03;;;;;;;8.00;3.00;;;12.70;73.40;;;15.28;55.09;102400.88;5115062;28;20698;-58
2022/10/09 02:44:30;;;;;;;6.63;3.83;;;12.70;73.30;;;15.22;55.55;102398.88;5115775;28;20212;-57
2022/10/09 02:46:59;;;;;;;6.83;3.30;;;12.60;73.60;;;15.13;55.51;102402.50;5114939;27;20200;-57
2022/10/09 02:49:26;;;;;;;7.67;4.60;;;12.50;73.50;;;15.03;55.97;102404.47;5115500;28;20221;-58
2022/10/09 02:51:53;;;;;;;7.27;3.47;;;12.50;73.90;;;14.89;56.03;102397.97;5114404;28;20260;-57
2022/10/09 02:54:20;;;;;;;9.77;4.67;;;12.40;74.00;;;14.82;56.54;102408.41;5114712;28;20611;-57
2022/10/09 02:56:48;;;;;;;7.87;3.40;;;12.30;74.40;;;14.71;56.76;102406.03;5115269;28;20267;-56
2022/10/09 02:59:15;;;;;;;7.00;4.30;;;12.20;74.80;;;14.60;57.11;102397.53;5114862;28;20191;-55
2022/10/09 03:01:43;;;;;;;8.37;3.13;;;12.10;74.90;;;14.52;57.07;102390.41;5114764;28;20271;-58
2022/10/09 03:04:12;;;;;;;6.93;4.00;;;12.00;74.80;;;14.47;57.44;102407.75;5114590;28;20199;-56
2022/10/09 03:06:39;;;;;;;9.93;3.83;;;12.00;75.60;;;14.40;57.86;102401.44;5114999;28;20184;-58
2022/10/09 03:09:07;;;;;;;6.43;3.30;;;11.90;76.00;;;14.30;58.15;102404.22;5114875;28;20212;-55
2022/10/09 03:11:34;;;;;;;8.50;3.60;;;11.80;76.30;;;14.15;58.19;102403.09;5114716;28;20186;-57
2022/10/09 03:14:01;;;;;;;6.97;3.57;;;11.70;76.60;;;14.01;58.92;102398.38;5115552;28;20219;-57
2022/10/09 03:16:29;;;;;;;6.67;3.13;;;11.60;76.80;;;13.90;59.32;102398.63;5114871;28;20244;-56
2022/10/09 03:18:57;;;;;;;11.93;4.13;;;11.50;77.30;;;13.82;59.72;102395.91;5114617;28;20594;-58
2022/10/09 03:21:27;;;;;;;7.90;3.70;;;11.40;77.70;;;13.78;59.85;102399.88;5121205;27;20248;-57
2022/10/09 03:23:55;;;;;;;5.50;3.70;;;11.30;77.80;;;13.73;59.97;102408.28;5134874;27;20267;-58
2022/10/09 03:26:26;;;;;;;7.50;3.47;;;11.30;78.30;;;13.74;60.03;102403.81;5133553;27;20219;-58
2022/10/09 03:28:54;;;;;;;8.40;4.10;;;11.30;78.60;;;13.76;59.85;102415.91;5135208;27;20227;-58
2022/10/09 03:31:24;;;;;;;9.63;4.13;;;11.20;78.60;;;13.77;59.86;102403.47;5134335;27;20187;-57
2022/10/09 03:34:12;;;;;;;7.53;4.00;;;11.20;78.60;;;13.75;59.83;102410.75;5134807;27;20696;-59
2022/10/09 03:36:41;;;;;;;5.27;3.50;;;11.20;78.70;;;13.74;59.99;102414.41;5134699;27;20183;-56
2022/10/09 03:39:08;;;;;;;9.43;3.90;;;11.10;78.70;;;13.66;60.05;102417.81;5129849;27;20724;-58
2022/10/09 03:41:36;;;;;;;7.80;4.50;;;11.10;78.80;;;13.63;60.18;102419.91;5114102;28;20295;-56
2022/10/09 03:44:03;;;;;;;8.03;4.10;;;11.10;78.80;;;13.63;60.13;102428.69;5125061;27;20211;-57
2022/10/09 03:46:31;;;;;;;5.77;3.40;;;11.10;79.20;;;13.64;60.10;102429.53;5114246;28;20217;-58
2022/10/09 03:48:58;;;;;;;6.27;3.80;;;11.00;79.00;;;13.64;60.08;102421.59;5114489;28;20745;-57
2022/10/09 03:51:25;;;;;;;7.20;3.50;;;11.00;79.10;;;13.67;60.15;102429.22;5113948;28;20245;-58
2022/10/09 03:53:54;;;;;;;7.10;3.57;;;11.00;79.40;;;13.78;60.71;102426.34;5114199;28;20211;-55
2022/10/09 03:56:21;;;;;;;4.60;3.23;;;11.10;80.70;;;13.94;60.62;102426.44;5114116;28;20184;-58
2022/10/09 03:58:48;;;;;;;10.60;3.33;;;11.20;80.70;;;14.11;60.12;102439.66;5114180;28;20210;-58
2022/10/09 04:01:16;;;;;;;8.23;4.03;;;11.40;80.20;;;14.27;59.73;102439.75;5113631;28;20192;-57
2022/10/09 04:03:43;;;;;;;7.97;3.50;;;11.50;80.00;;;14.43;59.39;102443.53;5113425;28;20632;-58
2022/10/09 04:06:11;;;;;;;9.53;3.60;;;11.70;79.40;;;14.55;58.69;102437.75;5113482;28;20590;-58
2022/10/09 04:08:38;;;;;;;5.47;3.60;;;11.80;78.40;;;14.60;58.04;102435.47;5113974;28;20599;-57
2022/10/09 04:11:07;;;;;;;5.40;3.20;;;11.90;77.30;;;14.57;57.92;102425.19;5113677;28;20257;-58
2022/10/09 04:13:34;;;;;;;7.90;3.50;;;11.90;76.80;;;14.56;57.62;102433.31;5113864;28;20231;-57
2022/10/09 04:16:02;;;;;;;11.03;4.53;;;11.90;76.50;;;14.49;57.48;102437.56;5113768;28;20187;-58
2022/10/09 04:18:30;;;;;;;5.10;3.63;;;11.90;76.20;;;14.32;57.76;102441.13;5113657;28;20245;-57
2022/10/09 04:20:57;;;;;;;6.47;3.73;;;11.80;76.30;;;14.18;58.10;102451.28;5116735;28;20191;-58
2022/10/09 04:23:26;;;;;;;7.97;4.20;;;11.70;76.30;;;14.05;58.37;102455.31;5134227;27;20211;-56
2022/10/09 04:25:57;;;;;;;8.33;4.63;;;11.60;76.70;;;13.89;58.72;102455.19;5134173;27;20279;-57
2022/10/09 04:28:27;;;;;;;11.33;4.53;;;11.40;77.10;;;13.73;59.46;102455.06;5134277;27;20183;-58
2022/10/09 04:30:56;;;;;;;9.17;4.47;;;11.30;77.60;;;13.61;59.66;102451.00;5133968;27;20186;-57
2022/10/09 04:33:25;;;;;;;8.50;4.40;;;11.20;78.00;;;13.48;60.13;102452.19;5130005;27;20269;-58
2022/10/09 04:35:56;;;;;;;9.40;4.63;;;11.10;78.40;;;13.35;60.50;102451.75;5113643;28;20188;-57
2022/10/09 04:38:24;;;;;;;8.20;5.17;;;11.00;79.10;;;13.27;60.95;102451.66;5114205;28;20183;-56
2022/10/09 04:40:56;;;;;;;7.57;4.37;;;10.90;79.20;;;13.23;60.83;102437.09;5129297;28;20199;-57
2022/10/09 04:43:24;;;;;;;10.00;4.70;;;10.80;79.30;;;13.23;61.02;102447.66;5133811;27;20234;-58
2022/10/09 04:45:52;;;;;;;8.40;4.53;;;10.80;79.90;;;13.23;60.95;102446.81;5108912;27;20219;-57
2022/10/09 04:48:19;;;;;;;7.97;4.70;;;10.70;79.90;;;13.22;61.26;102446.00;5113999;28;20192;-57
2022/10/09 04:50:48;;;;;;;5.63;4.40;;;10.70;80.20;;;13.22;61.34;102442.50;5114724;28;20241;-55
2022/10/09 04:53:15;;;;;;;6.67;4.63;;;10.70;80.40;;;13.19;61.45;102441.00;5120151;28;20207;-58
2022/10/09 04:55:44;;;;;;;7.67;4.90;;;10.70;80.50;;;13.16;61.30;102433.38;5117699;28;20589;-55
2022/10/09 04:58:12;;;;;;;6.43;4.90;;;10.60;80.50;;;13.17;61.32;102431.56;5113205;28;20244;-57
2022/10/09 05:00:44;;;;;;;10.07;4.00;;;10.60;80.40;;;13.18;61.12;102434.06;5112943;28;20679;-56
2022/10/09 05:03:12;;;;;;;8.70;5.13;;;10.60;80.50;;;13.21;61.14;102433.75;5113788;28;20226;-56
2022/10/09 05:05:39;;;;;;;11.10;5.30;;;10.60;80.50;;;13.21;61.30;102431.13;5113434;28;20721;-57
2022/10/09 05:08:07;;;;;;;6.70;4.53;;;10.60;81.00;;;13.17;61.33;102432.38;5113831;28;20203;-57
2022/10/09 05:10:34;;;;;;;7.67;5.17;;;10.60;80.90;;;13.16;61.44;102436.03;5113230;28;20725;-57
2022/10/09 05:13:03;;;;;;;7.00;5.20;;;10.60;80.90;;;13.17;61.16;102437.66;5113207;28;20236;-57
2022/10/09 05:15:34;;;;;;;6.17;4.63;;;10.50;80.90;;;13.17;61.17;102427.09;5114027;28;20188;-57
2022/10/09 05:18:03;;;;;;;4.83;4.13;;;10.50;80.90;;;13.22;61.35;102435.41;5116103;28;20236;-56
2022/10/09 05:20:30;;;;;;;7.40;4.57;;;10.60;81.20;;;13.26;61.03;102435.97;5117032;28;20241;-57
2022/10/09 05:22:58;;;;;;;6.67;4.67;;;10.60;81.10;;;13.29;60.89;102435.63;5117124;28;20753;-57
2022/10/09 05:25:25;;;;;;;5.53;4.60;;;10.60;81.10;;;13.33;60.96;102437.84;5116954;28;21000;-57
2022/10/09 05:27:52;;;;;;;9.17;5.03;;;10.60;81.00;;;13.35;60.50;102435.06;5117116;28;20192;-56
2022/10/09 05:30:19;;;;;;;7.73;4.57;;;10.60;80.60;;;13.36;60.96;102437.53;5117015;28;20582;-57
2022/10/09 05:32:47;;;;;;;6.73;4.50;;;10.70;81.00;;;13.41;60.66;102442.38;5116263;27;20207;-58
2022/10/09 05:35:16;;;;;;;9.43;5.13;;;10.70;80.70;;;13.42;60.39;102444.03;5116802;28;20279;-58
2022/10/09 05:37:44;;;;;;;6.10;4.37;;;10.70;80.10;;;13.42;60.20;102449.34;5096383;28;20185;-58
2022/10/09 05:40:11;;;;;;;7.90;4.73;;;10.70;79.90;;;13.40;60.00;102449.50;5110382;27;20195;-57
2022/10/09 05:42:39;;;;;;;5.33;3.90;;;10.70;79.80;;;13.41;60.16;102450.31;5116645;28;20590;-58
2022/10/09 05:45:08;;;;;;;7.57;4.40;;;10.70;79.70;;;13.42;59.81;102451.97;5116512;28;20253;-57
2022/10/09 05:47:35;;;;;;;6.67;3.87;;;10.70;79.80;;;13.39;59.82;102455.75;5116424;28;20195;-57
2022/10/09 05:50:03;;;;;;;8.60;4.37;;;10.70;79.50;;;13.36;59.86;102442.00;5116600;28;20188;-57
2022/10/09 05:52:34;;;;;;;6.73;4.50;;;10.70;79.50;;;13.26;60.07;102444.72;5116727;28;20549;-56
2022/10/09 05:55:02;;;;;;;8.63;5.47;;;10.70;79.60;;;13.17;60.52;102442.97;5116397;28;20180;-55
2022/10/09 05:57:29;;;;;;;7.97;4.60;;;10.60;79.50;;;13.12;60.57;102445.22;5116193;28;20184;-55
2022/10/09 05:59:57;;;;;;;10.17;4.83;;;10.60;79.70;;;13.06;60.82;102448.47;5116753;28;20249;-57
2022/10/09 06:02:24;;;;;;;9.90;4.90;;;10.50;79.90;;;13.00;60.97;102440.28;5115987;28;20336;-55
2022/10/09 06:04:51;;;;;;;9.80;4.80;;;10.50;80.20;;;13.00;61.25;102446.41;5116067;28;20204;-57
2022/10/09 06:07:18;;;;;;;6.30;4.53;;;10.40;80.50;;;12.96;61.14;102450.28;5116355;28;20212;-57
2022/10/09 06:09:47;;;;;;;9.20;5.23;;;10.40;81.50;;;12.91;61.37;102447.25;5117142;28;20188;-57
2022/10/09 06:12:14;;;;;;;10.90;5.10;;;10.30;80.80;;;12.91;61.49;102452.53;5117078;28;20235;-56
2022/10/09 06:14:42;;;;;;;9.70;5.30;;;10.30;80.80;;;12.93;61.84;102445.31;5117082;27;20298;-57
2022/10/09 06:17:09;;;;;;;9.03;5.00;;;10.40;81.20;;;12.90;61.49;102454.38;5117436;28;20304;-57
2022/10/09 06:19:36;;;;;;;6.40;4.90;;;10.30;81.30;;;12.94;61.40;102457.53;5116519;28;20240;-57
2022/10/09 06:22:04;;;;;;;9.33;5.70;;;10.30;81.20;;;13.00;61.45;102461.41;5127811;27;20259;-58
2022/10/09 06:24:31;;;;;;;11.47;5.57;;;10.30;81.40;;;13.04;61.53;102458.31;5136338;27;20195;-55
2022/10/09 06:27:00;;;;;;;7.57;4.30;;;10.40;81.60;;;13.11;61.55;102459.44;5135972;27;20211;-57
2022/10/09 06:29:28;;;;;;;8.63;5.00;;;10.40;81.60;;;13.18;61.16;102452.56;5135738;27;20199;-57
2022/10/09 06:31:56;;;;;;;5.90;4.73;;;10.40;81.50;;;13.27;61.00;102459.59;5135549;27;20195;-58
2022/10/09 06:34:23;;;;;;;10.67;5.20;;;10.50;81.50;;;13.32;60.84;102467.91;5123502;27;20245;-57
2022/10/09 06:36:50;;;;;;;8.60;5.40;;;10.50;81.20;;;13.34;60.50;102471.25;5115406;28;20712;-58
2022/10/09 06:39:18;;;;;;;7.57;4.97;;;10.60;81.50;;;13.32;60.57;102459.97;5121238;27;20187;-57
2022/10/09 06:41:45;;;;;;;10.77;5.53;;;10.60;80.70;;;13.37;60.55;102465.66;5135834;27;20187;-59
2022/10/09 06:44:15;;;;;;;9.37;4.67;;;10.60;80.80;;;13.43;60.24;102478.25;5134488;27;20232;-56
2022/10/09 06:46:47;;;;;;;11.87;5.10;;;10.70;80.60;;;13.43;60.18;102475.63;5114728;28;20268;-57
2022/10/09 06:49:14;;;;;;;7.73;5.53;;;10.70;80.40;;;13.47;60.24;102471.72;5115576;28;20212;-56
2022/10/09 06:51:41;;;;;;;14.17;9.70;;;10.70;80.40;;;13.51;60.07;102472.22;5115489;28;20188;-55
2022/10/09 06:54:13;;;;;;;8.83;5.67;;;10.80;80.30;;;13.52;60.13;102480.03;5115210;28;20271;-57
2022/10/09 06:56:40;;;;;;;8.33;5.03;;;10.80;80.20;;;13.55;60.07;102474.41;5114991;28;20173;-55
2022/10/09 06:59:10;;;;;;;8.17;4.87;;;10.80;80.20;;;13.60;60.12;102476.59;5114902;28;20187;-56
2022/10/09 07:01:38;;;;;;;11.53;5.90;;;10.90;80.40;;;13.67;60.01;102476.84;5114659;28;20192;-56
2022/10/09 07:04:12;;;;;;;7.00;5.10;;;10.90;80.20;;;13.67;59.86;102477.66;5114912;28;20272;-55
2022/10/09 07:06:43;;;;;;;8.57;5.43;;;10.90;80.20;;;13.63;60.10;102480.78;5115009;28;20211;-56
2022/10/09 07:09:13;;;;;;;8.93;5.73;;;10.90;80.10;;;13.58;60.32;102479.41;5114901;28;20192;-56
2022/10/09 07:11:43;;;;;;;11.10;5.67;;;11.00;80.10;;;13.59;60.31;102480.25;5114922;28;20192;-56
2022/10/09 07:14:14;;;;;;;11.70;5.70;;;10.90;80.20;;;13.60;60.44;102481.09;5115113;28;20594;-58
2022/10/09 07:16:46;;;;;;;7.50;5.60;;;11.00;80.20;;;13.66;60.47;102491.06;5114864;28;20191;-57
2022/10/09 07:19:16;;;;;;;8.43;6.73;;;11.00;80.40;;;13.74;60.33;102494.59;5115035;28;20188;-55
2022/10/09 07:21:47;;;;;;;9.33;6.40;;;11.00;80.50;;;13.79;60.32;102491.50;5114400;28;20203;-55
2022/10/09 07:24:15;;;;;;;8.63;5.70;;;11.10;80.70;;;13.86;60.30;102487.28;5115747;28;20358;-57
2022/10/09 07:26:45;;;;;;;9.17;5.83;;;11.10;80.50;;;13.96;60.04;102485.34;5116329;28;20660;-57
2022/10/09 07:29:16;;;;;;;8.47;5.77;;;11.20;80.60;;;14.01;59.88;102494.50;5116099;28;20195;-58
2022/10/09 07:31:45;;;;;;;7.83;5.40;;;11.20;80.30;;;14.09;59.99;102494.59;5114810;28;20291;-57
2022/10/09 07:34:13;;;;;;;12.30;6.43;;;11.30;80.30;;;14.12;59.81;102498.75;5116936;28;20207;-57
2022/10/09 07:36:40;;;;;;;9.43;5.50;;;11.40;80.30;;;14.14;60.02;102499.41;5114840;28;20217;-58
2022/10/09 07:39:07;;;;;;;13.77;5.30;;;11.50;80.40;;;14.17;60.09;102501.75;5118635;27;20199;-57
2022/10/09 07:41:35;;;;;;;8.57;6.03;;;11.50;80.10;;;14.26;59.95;102500.84;5135346;27;20187;-58
2022/10/09 07:44:02;;;;;;;7.97;6.23;;;11.60;80.10;;;14.29;59.56;102497.84;5134552;27;20269;-57
2022/10/09 07:46:30;;;;;;;7.57;5.03;;;11.60;79.80;;;14.39;59.48;102503.09;5096665;28;20219;-57
2022/10/09 07:49:02;;;;;;;6.23;5.30;;;11.60;79.80;;;14.45;59.33;102505.13;5114559;28;20180;-56
2022/10/09 07:51:31;;;;;;;11.50;5.70;;;11.70;79.80;;;14.49;59.29;102502.00;5113694;28;20240;-57
2022/10/09 07:54:00;;;;;;;9.67;5.87;;;11.80;79.60;;;14.52;59.23;102504.34;5114572;28;20215;-56
2022/10/09 07:56:31;;;;;;;7.57;5.63;;;11.80;79.50;;;14.58;58.89;102511.66;5115289;28;20188;-57
2022/10/09 07:59:01;;;;;;;8.47;5.27;;;11.90;79.40;;;14.72;59.33;102513.72;5116325;28;20241;-56
2022/10/09 08:01:31;;;;;;;11.37;5.67;;;11.90;79.30;;;14.82;58.81;102521.56;5113604;28;20592;-56
2022/10/09 08:04:01;;;;;;;10.50;5.83;;;12.00;79.20;;;14.93;58.66;102511.50;5113522;28;20226;-58
2022/10/09 08:06:29;;;;;;;11.97;5.50;;;12.10;79.10;;;15.06;58.65;102513.72;5113635;28;20261;-59
2022/10/09 08:09:00;;;;;;;10.43;5.83;;;12.30;79.00;;;15.11;57.94;102513.25;5114109;28;20265;-56
2022/10/09 08:11:28;;;;;;;11.27;5.83;;;12.40;78.40;;;15.15;58.09;102515.41;5113913;28;20653;-58
2022/10/09 08:13:56;;;;;;;8.63;5.03;;;12.50;78.40;;;15.18;58.27;102514.25;5113549;28;20215;-57
2022/10/09 08:16:25;;;;;;;8.53;5.60;;;12.50;78.20;;;15.20;58.15;102510.44;5113743;28;20191;-55
2022/10/09 08:18:55;;;;;;;9.57;5.10;;;12.60;78.30;;;15.29;58.13;102511.28;5113960;28;20215;-58
2022/10/09 08:21:27;;;;;;;6.60;5.03;;;12.60;78.10;;;15.36;58.00;102507.00;5120023;27;20259;-58
2022/10/09 08:23:56;;;;;;;10.27;5.40;;;12.70;78.20;;;15.49;57.93;102507.41;5134440;27;20207;-58
2022/10/09 08:26:26;;;;;;;7.33;4.93;;;12.80;78.30;;;15.69;57.64;102513.25;5114386;27;20216;-58
2022/10/09 08:28:56;;;;;;;7.13;4.90;;;12.90;79.30;;;15.94;57.36;102513.09;5113732;28;20644;-58
2022/10/09 08:31:25;;;;;;;8.37;4.83;;;13.00;78.20;;;16.21;57.41;102515.41;5113421;28;20259;-57
2022/10/09 08:33:54;;;;;;;6.97;5.20;;;13.20;78.30;;;16.49;56.39;102510.56;5113611;28;20550;-58
2022/10/09 08:36:24;;;;;;;8.00;4.70;;;13.40;77.60;;;16.62;55.63;102512.72;5114257;28;20215;-58
2022/10/09 08:38:52;;;;;;;9.43;4.90;;;13.60;76.30;;;16.61;55.16;102508.41;5114002;28;20711;-56
2022/10/09 08:41:33;;;;;;;10.40;4.37;;;13.70;75.30;;;16.77;55.30;102511.84;5115185;28;20198;-55
2022/10/09 08:44:08;;;;;;;5.90;4.57;;;13.90;75.60;;;16.99;54.59;102504.94;5117361;28;20207;-55
2022/10/09 08:47:02;;;;;;;7.87;4.30;;;14.00;75.90;;;17.17;54.37;102502.84;5102562;28;20280;-58
2022/10/09 08:49:43;;;;;;;7.33;4.37;;;14.20;75.10;;;17.38;54.02;102511.06;5092871;28;20273;-58
2022/10/09 08:52:26;;;;;;;6.47;3.73;;;14.40;75.00;;;17.78;53.78;102501.19;5104589;28;20212;-58
2022/10/09 08:55:02;;;;;;;7.70;4.27;;;14.50;75.00;;;18.40;52.44;102502.59;5117892;28;20207;-61
2022/10/09 08:57:33;;;;;;;6.00;4.27;;;14.80;74.30;;;18.94;50.92;102505.88;5117865;28;20221;-58
2022/10/09 09:00:00;;;;;;;10.00;5.23;;;15.10;73.40;;;19.30;49.30;102495.22;5117521;28;20175;-58
2022/10/09 09:03:03;;;;;;;7.57;4.33;;;15.50;71.20;;;19.79;48.10;102490.81;5117324;28;20256;-55
2022/10/09 09:05:44;;;;;;;6.73;4.43;;;15.90;69.50;;;20.53;46.05;102492.03;5116262;28;20199;-57
2022/10/09 09:08:30;;;;;;;7.23;3.60;;;16.30;67.70;;;21.25;45.27;102489.69;5117422;28;20350;-58
2022/10/09 09:11:16;;;;;;;8.70;3.83;;;16.70;67.40;;;21.92;43.81;102496.84;5116952;28;20218;-58
2022/10/09 09:14:09;;;;;;;6.40;3.97;;;17.20;65.50;;;22.37;42.04;102482.56;5117670;28;20239;-58
2022/10/09 09:17:15;;;;;;;7.47;3.00;;;17.60;63.30;;;23.23;41.41;102483.94;5116782;28;20180;-59
2022/10/09 09:20:00;;;;;;;10.93;3.97;;;18.20;63.70;;;24.21;38.97;102480.56;5117076;28;20195;-58
2022/10/09 09:22:29;;;;;;;7.33;3.50;;;18.60;60.90;;;25.02;37.32;102482.97;5119046;27;20565;-59
2022/10/09 09:24:59;;;;;;;7.27;3.37;;;19.20;59.50;;;25.95;36.95;102478.69;5117274;28;20191;-58
2022/10/09 09:27:31;;;;;;;5.50;2.83;;;19.90;60.20;;;26.52;35.23;102482.47;5116638;28;20284;-58
2022/10/09 09:30:12;;;;;;;3.83;2.40;;;20.60;56.70;;;27.14;34.48;102478.06;5116925;28;20176;-57
2022/10/09 09:32:48;;;;;;;3.63;2.50;;;21.40;55.60;;;27.76;33.17;102478.09;5115953;28;20222;-56
2022/10/09 09:35:24;;;;;;;8.80;5.23;;;22.00;53.50;;;27.97;31.04;102466.53;5116493;27;20237;-57
2022/10/09 09:37:52;;;;;;;5.07;2.43;;;22.50;50.00;;;27.85;31.16;102474.75;5116626;28;20184;-56
2022/10/09 09:40:27;;;;;;;5.37;2.43;;;22.80;48.60;;;27.99;31.39;102478.78;5116454;28;20199;-59
2022/10/09 09:43:17;;;;;;;3.97;2.40;;;23.20;48.60;;;28.30;29.88;102476.50;5116318;28;20216;-59
2022/10/09 09:45:46;;;;;;;3.63;2.30;;;23.50;47.00;;;28.65;31.17;102468.88;5116291;28;20191;-59
2022/10/09 09:48:20;;;;;;;6.30;2.13;;;23.70;48.20;;;28.98;30.50;102467.94;5116151;28;20606;-59
2022/10/09 09:50:53;;;;;;;4.07;2.23;;;23.90;47.20;;;29.22;30.99;102464.66;5116262;28;20195;-59
2022/10/09 09:53:44;;;;;;;6.90;2.70;;;24.10;47.80;;;29.33;29.35;102460.16;5096220;28;20297;-58
2022/10/09 09:56:13;;;;;;;4.73;2.50;;;24.30;44.60;;;29.05;28.83;102457.69;5095914;28;20196;-58
2022/10/09 09:58:46;;;;;;;7.50;2.50;;;24.20;43.50;;;28.73;29.16;102455.72;5095944;28;20185;-59
2022/10/09 10:01:24;;;;;;;4.13;2.37;;;24.20;43.90;;;28.36;29.43;102453.84;5095584;28;20177;-58
2022/10/09 10:03:55;;;;;;;5.73;2.60;;;24.00;44.30;;;28.16;29.95;102455.22;5094640;28;20290;-60
2022/10/09 10:06:28;;;;;;;6.43;2.70;;;23.80;44.20;;;27.86;29.33;102449.28;5095561;28;20590;-58
2022/10/09 10:09:03;;;;;;;5.43;1.80;;;23.40;43.60;;;27.69;29.71;102440.38;5096072;28;20545;-58
2022/10/09 10:11:34;;;;;;;5.33;2.73;;;23.20;44.40;;;27.46;30.24;102441.34;5095611;28;20906;-58
2022/10/09 10:14:06;;;;;;;4.93;2.40;;;22.90;45.20;;;27.53;30.37;102427.66;5095531;28;20281;-58
2022/10/09 10:16:37;;;;;;;6.40;2.20;;;22.80;45.40;;;27.73;29.92;102433.41;5107731;28;20200;-58
2022/10/09 10:19:15;;;;;;;5.97;2.20;;;22.60;45.40;;;27.67;30.31;102428.94;5103652;28;20563;-60
2022/10/09 10:21:47;;;;;;;7.77;2.47;;;22.60;46.20;;;27.91;29.96;102433.13;5106657;27;20524;-58
2022/10/09 10:24:26;;;;;;;5.17;1.93;;;22.70;45.90;;;27.80;29.93;102439.47;5115496;28;20199;-58
2022/10/09 10:27:04;;;;;;;5.80;1.90;;;22.80;45.80;;;27.29;30.25;102431.56;5095664;28;20204;-58
2022/10/09 10:29:40;;;;;;;6.53;2.17;;;22.80;45.20;;;26.68;31.38;102435.78;5094924;28;20196;-58